createdAt,value
2022-11-09T00:00:43.716Z,22.20
2022-11-09T00:03:13.026Z,22.60
2022-11-09T00:05:40.791Z,23.20
2022-11-09T00:08:09.832Z,22.97
2022-11-09T00:10:37.929Z,24.47
2022-11-09T00:13:05.895Z,23.27
2022-11-09T00:15:33.473Z,23.67
2022-11-09T00:18:02.670Z,24.30
2022-11-09T00:20:31.861Z,23.83
2022-11-09T00:22:59.408Z,24.53
2022-11-09T00:25:26.977Z,25.60
2022-11-09T00:27:54.898Z,25.40
2022-11-09T00:30:22.481Z,26.10
2022-11-09T00:32:50.001Z,25.27
2022-11-09T00:35:17.636Z,25.87
2022-11-09T00:37:46.606Z,25.00
2022-11-09T00:40:14.296Z,24.83
2022-11-09T00:42:41.911Z,24.33
2022-11-09T00:45:10.096Z,24.97
2022-11-09T00:47:37.612Z,25.70
2022-11-09T00:50:05.858Z,24.80
2022-11-09T00:52:33.447Z,25.70
2022-11-09T00:55:02.337Z,25.17
2022-11-09T00:57:29.902Z,25.40
2022-11-09T00:59:57.457Z,26.27
2022-11-09T01:02:25.009Z,25.00
2022-11-09T01:04:52.566Z,25.70
2022-11-09T01:07:20.138Z,25.23
2022-11-09T01:09:47.726Z,26.37
2022-11-09T01:12:16.592Z,25.73
2022-11-09T01:14:44.362Z,26.63
2022-11-09T01:17:11.908Z,25.93
2022-11-09T01:19:39.483Z,26.53
2022-11-09T01:22:07.121Z,26.07
2022-11-09T01:24:34.686Z,26.60
2022-11-09T01:27:02.226Z,26.47
2022-11-09T01:29:32.357Z,26.23
2022-11-09T01:31:59.877Z,27.30
2022-11-09T01:34:28.900Z,26.23
2022-11-09T01:36:56.448Z,27.10
2022-11-09T01:39:24.027Z,28.50
2022-11-09T01:41:51.681Z,27.90
2022-11-09T01:44:20.929Z,27.47
2022-11-09T01:46:54.892Z,27.63
2022-11-09T01:49:32.326Z,28.10
2022-11-09T01:52:04.146Z,27.90
2022-11-09T01:54:37.301Z,27.47
2022-11-09T01:57:10.346Z,27.77
2022-11-09T01:59:42.742Z,27.33
2022-11-09T02:02:12.073Z,27.40
2022-11-09T02:04:42.378Z,27.67
2022-11-09T02:07:10.134Z,28.33
2022-11-09T02:09:42.633Z,28.10
2022-11-09T02:12:11.525Z,28.57
2022-11-09T02:14:40.263Z,30.43
2022-11-09T02:17:08.970Z,28.80
2022-11-09T02:19:37.884Z,30.13
2022-11-09T02:22:06.816Z,29.73
2022-11-09T02:24:35.025Z,29.50
2022-11-09T02:27:02.706Z,30.80
2022-11-09T02:29:38.132Z,30.60
2022-11-09T02:32:10.927Z,31.73
2022-11-09T02:34:38.467Z,31.30
2022-11-09T02:37:07.455Z,32.60
2022-11-09T02:39:35.622Z,32.13
2022-11-09T02:42:10.218Z,32.30
2022-11-09T02:44:42.753Z,32.13
2022-11-09T02:47:10.367Z,32.67
2022-11-09T02:49:37.970Z,31.53
2022-11-09T02:52:07.025Z,34.30
2022-11-09T02:54:34.613Z,33.70
2022-11-09T02:57:02.182Z,33.67
2022-11-09T02:59:29.765Z,34.47
2022-11-09T03:01:57.313Z,33.00
2022-11-09T03:04:25.032Z,32.73
2022-11-09T03:06:52.630Z,34.07
2022-11-09T03:09:21.583Z,32.87
2022-11-09T03:11:49.549Z,33.43
2022-11-09T03:14:17.528Z,32.30
2022-11-09T03:16:50.188Z,33.93
2022-11-09T03:19:18.409Z,33.90
2022-11-09T03:21:46.293Z,33.57
2022-11-09T03:24:13.922Z,32.97
2022-11-09T03:26:42.816Z,34.03
2022-11-09T03:29:10.373Z,33.30
2022-11-09T03:31:37.917Z,33.23
2022-11-09T03:34:05.474Z,33.30
2022-11-09T03:36:33.015Z,33.53
2022-11-09T03:39:00.584Z,32.33
2022-11-09T03:41:28.164Z,32.70
2022-11-09T03:43:57.048Z,32.63
2022-11-09T03:46:24.621Z,32.17
2022-11-09T03:48:52.266Z,33.30
2022-11-09T03:51:19.932Z,32.43
2022-11-09T03:53:47.473Z,32.63
2022-11-09T03:56:15.049Z,32.50
2022-11-09T03:58:42.614Z,33.57
2022-11-09T04:01:11.942Z,32.57
2022-11-09T04:03:39.573Z,32.03
2022-11-09T04:06:07.450Z,32.13
2022-11-09T04:08:35.201Z,32.57
2022-11-09T04:11:02.847Z,32.77
2022-11-09T04:13:30.393Z,32.97
2022-11-09T04:15:57.951Z,33.17
2022-11-09T04:18:26.866Z,30.83
2022-11-09T04:20:54.405Z,31.73
2022-11-09T04:23:22.370Z,31.97
2022-11-09T04:25:50.118Z,31.93
2022-11-09T04:28:17.712Z,32.13
2022-11-09T04:30:45.265Z,33.33
2022-11-09T04:33:12.804Z,32.53
2022-11-09T04:35:41.723Z,34.07
2022-11-09T04:38:12.583Z,33.13
2022-11-09T04:40:40.334Z,34.90
2022-11-09T04:43:11.558Z,34.43
2022-11-09T04:45:39.193Z,36.10
2022-11-09T04:48:08.380Z,32.30
2022-11-09T04:50:36.105Z,32.17
2022-11-09T04:53:10.051Z,34.30
2022-11-09T04:55:38.081Z,34.00
2022-11-09T04:58:06.189Z,32.93
2022-11-09T05:00:34.661Z,32.63
2022-11-09T05:03:02.806Z,32.20
2022-11-09T05:05:31.139Z,32.50
2022-11-09T05:07:58.692Z,32.33
2022-11-09T05:10:27.602Z,32.53
2022-11-09T05:12:58.899Z,31.80
2022-11-09T05:15:26.909Z,32.97
2022-11-09T05:17:54.741Z,33.00
2022-11-09T05:20:22.429Z,33.77
2022-11-09T05:23:07.344Z,32.70
2022-11-09T05:25:36.454Z,32.40
2022-11-09T05:28:04.153Z,34.20
2022-11-09T05:30:31.737Z,34.40
2022-11-09T05:32:59.305Z,34.00
2022-11-09T05:35:26.923Z,34.23
2022-11-09T05:37:54.519Z,34.27
2022-11-09T05:40:22.473Z,34.60
2022-11-09T05:42:51.429Z,34.17
2022-11-09T05:48:08.367Z,34.40
2022-11-09T05:50:35.976Z,35.57
2022-11-09T05:53:03.552Z,34.83
2022-11-09T05:55:31.115Z,34.73
2022-11-09T05:58:00.217Z,35.60
2022-11-09T06:00:28.555Z,35.10
2022-11-09T06:03:02.978Z,34.73
2022-11-09T06:05:30.638Z,34.70
2022-11-09T06:08:03.346Z,34.70
2022-11-09T06:10:30.899Z,35.43
2022-11-09T06:13:00.018Z,35.40
2022-11-09T06:15:27.593Z,33.60
2022-11-09T06:17:55.405Z,35.10
2022-11-09T06:20:23.979Z,34.93
2022-11-09T06:22:59.953Z,34.90
2022-11-09T06:25:31.650Z,34.17
2022-11-09T06:28:00.742Z,35.17
2022-11-09T06:30:28.346Z,34.93
2022-11-09T06:32:59.942Z,35.50
2022-11-09T06:35:27.581Z,35.30
2022-11-09T06:37:57.298Z,35.83
2022-11-09T06:40:24.889Z,35.67
2022-11-09T06:42:52.655Z,35.27
2022-11-09T06:45:21.661Z,34.60
2022-11-09T06:47:49.214Z,35.50
2022-11-09T06:50:17.014Z,36.20
2022-11-09T06:52:44.587Z,36.83
2022-11-09T06:55:12.192Z,35.83
2022-11-09T06:57:39.796Z,34.93
2022-11-09T07:00:08.822Z,35.00
2022-11-09T07:02:37.716Z,36.57
2022-11-09T07:05:05.743Z,35.90
2022-11-09T07:07:33.287Z,35.87
2022-11-09T07:10:00.821Z,35.37
2022-11-09T07:12:29.819Z,36.00
2022-11-09T07:14:57.365Z,35.77
2022-11-09T07:17:24.977Z,36.60
2022-11-09T07:19:53.867Z,36.90
2022-11-09T07:22:21.474Z,37.87
2022-11-09T07:24:49.053Z,35.87
2022-11-09T07:27:16.812Z,36.27
2022-11-09T07:29:44.352Z,36.77
2022-11-09T07:32:11.892Z,36.80
2022-11-09T07:34:39.478Z,35.70
2022-11-09T07:37:08.369Z,35.67
2022-11-09T07:39:35.915Z,34.50
2022-11-09T07:42:03.490Z,34.93
2022-11-09T07:44:31.025Z,35.00
2022-11-09T07:46:58.586Z,36.80
2022-11-09T07:49:26.172Z,35.00
2022-11-09T07:51:53.739Z,35.87
2022-11-09T07:54:22.757Z,36.07
2022-11-09T07:56:50.305Z,35.70
2022-11-09T07:59:17.871Z,34.23
2022-11-09T08:01:45.448Z,35.33
2022-11-09T08:04:13.046Z,36.13
2022-11-09T08:06:40.644Z,35.40
2022-11-09T08:09:08.420Z,36.30
2022-11-09T08:11:37.326Z,35.10
2022-11-09T08:14:04.910Z,35.03
2022-11-09T08:16:37.591Z,35.30
2022-11-09T08:19:05.622Z,35.37
2022-11-09T08:21:33.190Z,35.67
2022-11-09T08:24:00.733Z,34.20
2022-11-09T08:26:28.284Z,35.47
2022-11-09T08:28:57.180Z,34.03
2022-11-09T08:31:24.804Z,35.00
2022-11-09T08:33:52.349Z,35.17
2022-11-09T08:36:20.066Z,34.10
2022-11-09T08:38:47.818Z,34.27
2022-11-09T08:41:15.466Z,34.23
2022-11-09T08:43:43.025Z,35.63
2022-11-09T08:46:11.933Z,34.13
2022-11-09T08:48:39.648Z,35.20
2022-11-09T08:51:07.497Z,34.30
2022-11-09T08:53:35.052Z,34.63
2022-11-09T08:56:02.781Z,36.03
2022-11-09T08:58:30.864Z,35.03
2022-11-09T09:00:58.551Z,34.00
2022-11-09T09:03:27.521Z,35.73
2022-11-09T09:05:55.108Z,34.53
2022-11-09T09:08:23.183Z,34.70
2022-11-09T09:10:51.178Z,35.40
2022-11-09T09:13:22.459Z,35.30
2022-11-09T09:15:50.223Z,35.07
2022-11-09T09:18:18.090Z,33.87
2022-11-09T09:20:47.218Z,34.17
2022-11-09T09:23:15.928Z,34.43
2022-11-09T09:25:43.882Z,31.83
2022-11-09T09:28:11.499Z,32.07
2022-11-09T09:30:39.062Z,31.77
2022-11-09T09:33:06.590Z,31.50
2022-11-09T09:35:34.220Z,33.37
2022-11-09T09:38:03.139Z,31.03
2022-11-09T09:40:36.002Z,30.97
2022-11-09T09:43:04.190Z,30.60
2022-11-09T09:45:35.092Z,31.23
2022-11-09T09:48:14.723Z,30.60
2022-11-09T09:50:49.553Z,29.37
2022-11-09T09:53:27.740Z,31.57
2022-11-09T09:56:01.056Z,29.47
2022-11-09T09:58:30.554Z,29.30
2022-11-09T10:01:01.381Z,29.97
2022-11-09T10:03:29.073Z,28.60
2022-11-09T10:06:03.612Z,27.73
2022-11-09T10:08:40.947Z,27.63
2022-11-09T10:11:23.286Z,27.40
2022-11-09T10:14:10.104Z,28.00
2022-11-09T10:16:46.437Z,27.30
2022-11-09T10:19:35.642Z,26.43
2022-11-09T10:22:11.544Z,26.50
2022-11-09T10:25:18.644Z,25.40
2022-11-09T10:27:38.505Z,25.20
2022-11-09T10:30:14.897Z,24.80
2022-11-09T10:32:44.527Z,24.23
2022-11-09T10:35:19.511Z,24.30
2022-11-09T10:37:49.895Z,23.60
2022-11-09T10:40:23.368Z,22.87
2022-11-09T10:42:54.323Z,22.87
2022-11-09T10:45:30.813Z,21.90
2022-11-09T10:47:58.928Z,21.37
2022-11-09T10:50:31.548Z,22.10
2022-11-09T10:53:11.004Z,20.77
2022-11-09T10:55:50.195Z,21.80
2022-11-09T10:58:26.741Z,20.13
2022-11-09T11:01:03.632Z,21.53
2022-11-09T11:03:33.988Z,20.00
2022-11-09T11:06:02.821Z,19.20
2022-11-09T11:08:34.293Z,19.80
2022-11-09T11:11:38.319Z,18.77
2022-11-09T11:14:22.734Z,20.80
2022-11-09T11:16:52.969Z,18.70
2022-11-09T11:19:32.274Z,19.83
2022-11-09T11:22:23.574Z,19.97
2022-11-09T11:24:59.361Z,18.70
2022-11-09T11:27:37.248Z,19.03
2022-11-09T11:30:11.659Z,18.37
2022-11-09T11:32:39.429Z,19.50
2022-11-09T11:35:14.520Z,19.43
2022-11-09T11:37:49.980Z,19.97
2022-11-09T11:40:23.789Z,19.83
2022-11-09T11:43:22.198Z,19.83
2022-11-09T11:45:56.544Z,18.33
2022-11-09T11:48:54.397Z,18.03
2022-11-09T11:51:33.211Z,16.57
2022-11-09T11:54:14.930Z,16.87
2022-11-09T11:56:46.808Z,16.70
2022-11-09T11:59:41.881Z,16.83
2022-11-09T12:02:28.369Z,17.60
2022-11-09T12:05:36.084Z,17.60
2022-11-09T12:08:12.073Z,18.17
2022-11-09T12:10:51.049Z,16.77
2022-11-09T12:13:43.393Z,17.13
2022-11-09T12:16:22.042Z,16.27
2022-11-09T12:18:58.550Z,16.37
2022-11-09T12:21:35.784Z,16.83
2022-11-09T12:24:16.271Z,15.90
2022-11-09T12:27:17.833Z,16.13
2022-11-09T12:29:52.316Z,15.30
2022-11-09T12:32:29.825Z,15.90
2022-11-09T12:35:17.353Z,15.80
2022-11-09T12:37:50.438Z,16.03
2022-11-09T12:40:24.481Z,14.17
2022-11-09T12:43:00.330Z,15.33
2022-11-09T12:45:32.557Z,14.97
2022-11-09T12:48:06.544Z,15.50
2022-11-09T12:50:34.986Z,15.00
2022-11-09T12:53:05.140Z,15.87
2022-11-09T12:55:43.974Z,15.47
2022-11-09T12:58:22.707Z,14.17
2022-11-09T13:00:53.560Z,14.10
2022-11-09T13:03:26.632Z,15.13
2022-11-09T13:06:12.963Z,14.43
2022-11-09T13:08:41.436Z,14.67
2022-11-09T13:11:12.015Z,15.37
2022-11-09T13:13:39.570Z,13.10
2022-11-09T13:16:11.555Z,14.67
2022-11-09T13:18:52.240Z,13.90
2022-11-09T13:21:35.865Z,15.00
2022-11-09T13:24:53.895Z,15.10
2022-11-09T13:27:36.784Z,14.17
2022-11-09T13:30:40.743Z,15.13
2022-11-09T13:33:23.821Z,15.17
2022-11-09T13:36:17.652Z,14.07
2022-11-09T13:38:45.504Z,14.70
2022-11-09T13:41:43.864Z,15.03
2022-11-09T13:44:18.964Z,14.60
2022-11-09T13:46:50.245Z,14.40
2022-11-09T13:49:44.381Z,15.10
2022-11-09T13:52:42.388Z,14.30
2022-11-09T13:55:19.922Z,15.07
2022-11-09T13:57:47.842Z,14.43
2022-11-09T14:00:23.228Z,14.53
2022-11-09T14:02:57.169Z,14.70
2022-11-09T14:05:30.359Z,13.53
2022-11-09T14:08:02.545Z,14.10
2022-11-09T14:10:53.196Z,13.73
2022-11-09T14:13:45.245Z,14.90
2022-11-09T14:16:25.260Z,14.10
2022-11-09T14:19:05.413Z,14.50
2022-11-09T14:21:43.777Z,14.10
2022-11-09T14:24:17.965Z,14.97
2022-11-09T14:27:01.217Z,14.83
2022-11-09T14:29:32.834Z,15.03
2022-11-09T14:32:01.703Z,14.63
2022-11-09T14:34:30.980Z,14.70
2022-11-09T14:37:01.899Z,14.57
2022-11-09T14:39:34.703Z,14.90
2022-11-09T14:42:02.241Z,15.27
2022-11-09T14:44:35.821Z,15.70
2022-11-09T14:47:04.394Z,15.80
2022-11-09T14:49:33.661Z,15.90
2022-11-09T14:52:01.734Z,15.90
2022-11-09T14:54:29.545Z,15.43
2022-11-09T14:56:57.314Z,14.93
2022-11-09T14:59:31.334Z,16.50
2022-11-09T15:02:05.637Z,15.97
2022-11-09T15:04:52.208Z,17.03
2022-11-09T15:07:22.877Z,16.23
2022-11-09T15:09:54.200Z,15.40
2022-11-09T15:12:23.080Z,17.07
2022-11-09T15:14:53.423Z,17.90
2022-11-09T15:17:25.826Z,17.73
2022-11-09T15:19:57.046Z,17.77
2022-11-09T15:22:50.302Z,18.10
2022-11-09T15:25:24.962Z,18.40
2022-11-09T15:28:02.463Z,18.33
2022-11-09T15:30:33.339Z,20.70
2022-11-09T15:33:01.682Z,19.70
2022-11-09T15:35:30.629Z,21.30
2022-11-09T15:37:58.254Z,21.97
2022-11-09T15:40:26.385Z,20.03
2022-11-09T15:42:54.081Z,20.77
2022-11-09T15:45:22.131Z,22.60
2022-11-09T15:47:52.141Z,22.10
2022-11-09T15:50:23.281Z,24.53
2022-11-09T15:52:52.685Z,23.20
2022-11-09T15:55:23.458Z,23.10
2022-11-09T15:57:52.616Z,24.40
2022-11-09T16:00:22.268Z,26.43
2022-11-09T16:02:50.089Z,25.80
2022-11-09T16:05:18.654Z,26.17
2022-11-09T16:07:49.866Z,27.00
2022-11-09T16:10:20.257Z,28.37
2022-11-09T16:12:48.113Z,27.40
2022-11-09T16:15:15.760Z,28.07
2022-11-09T16:17:43.293Z,29.07
2022-11-09T16:20:11.561Z,29.77
2022-11-09T16:22:39.104Z,29.80
2022-11-09T16:25:07.259Z,28.33
2022-11-09T16:27:49.735Z,29.77
2022-11-09T16:30:18.768Z,29.47
2022-11-09T16:32:46.301Z,29.60
2022-11-09T16:35:29.447Z,31.50
2022-11-09T16:38:00.051Z,30.10
2022-11-09T16:40:28.927Z,34.17
2022-11-09T16:43:00.231Z,31.13
2022-11-09T16:45:33.151Z,31.23
2022-11-09T16:48:05.360Z,31.37
2022-11-09T16:50:32.949Z,30.90
2022-11-09T16:53:00.511Z,31.00
2022-11-09T16:55:28.093Z,30.63
2022-11-09T16:57:56.052Z,28.67
2022-11-09T17:00:37.438Z,28.10
2022-11-09T17:03:13.044Z,28.90
2022-11-09T17:05:41.132Z,27.30
2022-11-09T17:08:08.860Z,28.20
2022-11-09T17:10:40.941Z,28.13
2022-11-09T17:13:09.431Z,28.57
2022-11-09T17:15:41.818Z,28.13
2022-11-09T17:18:09.989Z,30.70
2022-11-09T17:20:42.923Z,29.63
2022-11-09T17:23:11.045Z,29.00
2022-11-09T17:25:39.087Z,29.70
2022-11-09T17:28:07.077Z,28.87
2022-11-09T17:30:35.550Z,29.00
2022-11-09T17:33:04.533Z,28.97
2022-11-09T17:35:36.418Z,29.90
2022-11-09T17:38:04.323Z,29.13
2022-11-09T17:40:31.863Z,29.33
2022-11-09T17:42:59.589Z,30.17
2022-11-09T17:45:27.212Z,29.93
2022-11-09T17:47:54.773Z,31.03
2022-11-09T17:50:23.688Z,30.93
2022-11-09T17:52:51.556Z,30.30
2022-11-09T17:55:19.092Z,31.30
2022-11-09T17:57:46.636Z,32.33
2022-11-09T18:00:15.376Z,31.33
2022-11-09T18:02:42.934Z,31.13
2022-11-09T18:05:10.935Z,30.53
2022-11-09T18:07:39.832Z,33.17
2022-11-09T18:10:07.993Z,33.30
2022-11-09T18:12:35.547Z,33.10
2022-11-09T18:15:03.118Z,35.33
2022-11-09T18:17:30.698Z,34.93
2022-11-09T18:19:58.232Z,34.87
2022-11-09T18:22:25.779Z,34.57
2022-11-09T18:24:54.762Z,35.27
2022-11-09T18:27:26.084Z,34.50
2022-11-09T18:29:57.972Z,34.07
2022-11-09T18:32:25.496Z,35.10
2022-11-09T18:34:53.032Z,35.77
2022-11-09T18:37:20.562Z,34.90
2022-11-09T18:39:48.202Z,35.80
2022-11-09T18:42:17.093Z,36.70
2022-11-09T18:44:44.656Z,36.27
2022-11-09T18:47:13.653Z,35.17
2022-11-09T18:49:41.266Z,36.17
2022-11-09T18:52:08.820Z,35.57
2022-11-09T18:54:36.594Z,36.27
2022-11-09T18:57:04.577Z,34.53
2022-11-09T18:59:34.006Z,35.23
2022-11-09T19:02:01.675Z,36.00
2022-11-09T19:04:29.271Z,36.23
2022-11-09T19:06:56.897Z,37.20
2022-11-09T19:09:34.964Z,36.50
2022-11-09T19:12:05.866Z,37.43
2022-11-09T19:14:40.557Z,36.13
2022-11-09T19:17:12.040Z,36.70
2022-11-09T19:19:39.645Z,36.97
2022-11-09T19:22:16.755Z,36.80
2022-11-09T19:24:44.687Z,34.87
2022-11-09T19:27:12.642Z,36.03
2022-11-09T19:29:41.574Z,35.17
2022-11-09T19:32:10.620Z,36.03
2022-11-09T19:34:38.166Z,36.23
2022-11-09T19:37:05.728Z,34.80
2022-11-09T19:39:35.309Z,34.73
2022-11-09T19:42:03.758Z,37.43
2022-11-09T19:44:31.317Z,37.07
2022-11-09T19:47:00.613Z,38.60
2022-11-09T19:49:28.192Z,39.60
2022-11-09T19:51:56.154Z,38.37
2022-11-09T19:54:23.777Z,36.10
2022-11-09T19:56:51.327Z,36.83
2022-11-09T19:59:20.704Z,38.70
2022-11-09T20:01:48.282Z,36.93
2022-11-09T20:04:17.919Z,37.40
2022-11-09T20:06:45.970Z,36.50
2022-11-09T20:09:13.662Z,38.23
2022-11-09T20:11:59.078Z,38.13
2022-11-09T20:14:26.657Z,38.30
2022-11-09T20:17:00.570Z,36.53
2022-11-09T20:19:32.194Z,36.13
2022-11-09T20:21:59.860Z,36.63
2022-11-09T20:24:27.490Z,38.77
2022-11-09T20:26:55.045Z,37.70
2022-11-09T20:29:22.752Z,37.00
2022-11-09T20:31:50.613Z,36.57
2022-11-09T20:34:18.187Z,36.57
2022-11-09T20:36:47.080Z,37.37
2022-11-09T20:39:14.625Z,35.73
2022-11-09T20:41:42.182Z,36.93
2022-11-09T20:44:10.891Z,36.30
2022-11-09T20:46:38.548Z,35.80
2022-11-09T20:49:06.536Z,36.77
2022-11-09T20:51:34.124Z,37.07
2022-11-09T20:54:07.139Z,36.53
2022-11-09T20:56:35.153Z,36.87
2022-11-09T20:59:02.797Z,36.90
2022-11-09T21:01:30.363Z,35.70
2022-11-09T21:03:57.977Z,34.50
2022-11-09T21:06:25.504Z,34.00
2022-11-09T21:08:54.849Z,34.23
2022-11-09T21:11:28.510Z,36.50
2022-11-09T21:13:56.548Z,34.13
2022-11-09T21:16:24.775Z,34.63
2022-11-09T21:18:52.365Z,34.00
2022-11-09T21:21:21.802Z,34.37
2022-11-09T21:24:07.534Z,34.43
2022-11-09T21:26:53.976Z,35.13
2022-11-09T21:29:41.185Z,34.57
2022-11-09T21:32:10.605Z,34.80
2022-11-09T21:34:38.195Z,35.30
2022-11-09T21:37:06.067Z,34.47
2022-11-09T21:39:34.021Z,35.27
2022-11-09T21:42:04.089Z,34.87
2022-11-09T21:44:33.171Z,35.80
2022-11-09T21:47:01.537Z,33.87
2022-11-09T21:49:29.193Z,34.43
2022-11-09T21:51:56.758Z,33.53
2022-11-09T21:54:25.361Z,33.50
2022-11-09T21:56:53.716Z,33.70
2022-11-09T21:59:22.721Z,33.27
2022-11-09T22:01:52.001Z,33.13
2022-11-09T22:04:19.636Z,33.67
2022-11-09T22:06:47.236Z,33.37
2022-11-09T22:09:16.688Z,33.20
2022-11-09T22:12:01.664Z,33.50
2022-11-09T22:14:47.789Z,33.27
2022-11-09T22:17:15.356Z,32.57
2022-11-09T22:20:00.508Z,33.50
2022-11-09T22:22:30.164Z,34.40
2022-11-09T22:24:57.742Z,35.50
2022-11-09T22:27:25.312Z,33.87
2022-11-09T22:29:54.208Z,33.90
2022-11-09T22:32:22.056Z,33.63
2022-11-09T22:34:49.597Z,34.27
2022-11-09T22:37:17.276Z,33.63
2022-11-09T22:39:47.566Z,35.57
2022-11-09T22:42:15.436Z,36.03
2022-11-09T22:44:42.991Z,34.13
2022-11-09T22:47:12.166Z,34.10
2022-11-09T22:49:39.756Z,34.23
2022-11-09T22:52:07.301Z,34.07
2022-11-09T22:54:34.845Z,36.20
2022-11-09T22:57:02.413Z,35.23
2022-11-09T22:59:29.962Z,34.07
2022-11-09T23:01:57.702Z,34.50
2022-11-09T23:04:26.617Z,35.17
2022-11-09T23:06:54.288Z,34.23
2022-11-09T23:09:21.901Z,34.30
2022-11-09T23:11:49.455Z,34.93
2022-11-09T23:14:37.164Z,35.53
2022-11-09T23:17:25.354Z,35.47
2022-11-09T23:19:53.293Z,36.53
2022-11-09T23:22:20.826Z,36.10
2022-11-09T23:25:05.789Z,35.77
2022-11-09T23:27:33.335Z,34.60
2022-11-09T23:30:00.904Z,34.33
2022-11-09T23:32:28.440Z,34.53
2022-11-09T23:34:57.327Z,34.47
2022-11-09T23:37:24.864Z,34.60
2022-11-09T23:39:52.405Z,34.97
2022-11-09T23:42:19.928Z,35.43
2022-11-09T23:44:47.470Z,35.33
2022-11-09T23:47:15.013Z,36.40
2022-11-09T23:49:42.549Z,37.67
2022-11-09T23:52:11.994Z,36.20
2022-11-09T23:54:39.544Z,35.67
2022-11-09T23:57:07.165Z,35.80
2022-11-09T23:59:34.756Z,35.10
